sensor_id;sensor_type;location;lat;lon;timestamp;temperature;humidity
4566;DHT22;2295;51.050;14.608;2023-09-30T00:01:09;18.90;99.90
4566;DHT22;2295;51.050;14.608;2023-09-30T00:03:39;18.80;99.90
4566;DHT22;2295;51.050;14.608;2023-09-30T00:06:08;18.80;99.90
4566;DHT22;2295;51.050;14.608;2023-09-30T00:08:37;18.80;99.90
4566;DHT22;2295;51.050;14.608;2023-09-30T00:11:06;18.70;99.90
4566;DHT22;2295;51.050;14.608;2023-09-30T00:13:34;18.70;99.90
4566;DHT22;2295;51.050;14.608;2023-09-30T00:16:03;18.60;99.90
4566;DHT22;2295;51.050;14.608;2023-09-30T00:18:31;18.60;99.90
4566;DHT22;2295;51.050;14.608;2023-09-30T00:21:01;18.50;99.90
4566;DHT22;2295;51.050;14.608;2023-09-30T00:23:30;18.40;99.90
4566;DHT22;2295;51.050;14.608;2023-09-30T00:25:58;18.30;99.90
4566;DHT22;2295;51.050;14.608;2023-09-30T00:28:27;18.30;99.90
4566;DHT22;2295;51.050;14.608;2023-09-30T00:30:55;18.20;99.90
4566;DHT22;2295;51.050;14.608;2023-09-30T00:33:23;18.20;99.90
4566;DHT22;2295;51.050;14.608;2023-09-30T00:35:52;18.20;99.90
4566;DHT22;2295;51.050;14.608;2023-09-30T00:38:22;18.20;99.90
4566;DHT22;2295;51.050;14.608;2023-09-30T00:40:51;18.20;99.90
4566;DHT22;2295;51.050;14.608;2023-09-30T00:43:20;18.20;99.90
4566;DHT22;2295;51.050;14.608;2023-09-30T00:45:49;18.20;99.90
4566;DHT22;2295;51.050;14.608;2023-09-30T00:48:18;18.20;99.90
4566;DHT22;2295;51.050;14.608;2023-09-30T00:50:46;18.20;99.90
4566;DHT22;2295;51.050;14.608;2023-09-30T00:53:15;18.10;99.90
4566;DHT22;2295;51.050;14.608;2023-09-30T00:55:45;18.10;99.90
4566;DHT22;2295;51.050;14.608;2023-09-30T00:58:13;18.00;99.90
4566;DHT22;2295;51.050;14.608;2023-09-30T01:00:42;18.00;99.90
4566;DHT22;2295;51.050;14.608;2023-09-30T01:03:11;17.90;99.90
4566;DHT22;2295;51.050;14.608;2023-09-30T01:05:40;17.80;99.90
4566;DHT22;2295;51.050;14.608;2023-09-30T01:08:08;17.80;99.90
4566;DHT22;2295;51.050;14.608;2023-09-30T01:10:37;17.60;99.90
4566;DHT22;2295;51.050;14.608;2023-09-30T01:13:06;17.50;99.90
4566;DHT22;2295;51.050;14.608;2023-09-30T01:15:35;17.40;99.90
4566;DHT22;2295;51.050;14.608;2023-09-30T01:18:04;17.40;99.90
4566;DHT22;2295;51.050;14.608;2023-09-30T01:20:32;17.20;99.90
4566;DHT22;2295;51.050;14.608;2023-09-30T01:23:02;17.10;99.90
4566;DHT22;2295;51.050;14.608;2023-09-30T01:25:31;17.00;99.90
4566;DHT22;2295;51.050;14.608;2023-09-30T01:28:00;16.90;99.90
4566;DHT22;2295;51.050;14.608;2023-09-30T01:30:33;16.90;99.90
4566;DHT22;2295;51.050;14.608;2023-09-30T01:33:02;16.90;99.90
4566;DHT22;2295;51.050;14.608;2023-09-30T01:35:30;16.90;99.90
4566;DHT22;2295;51.050;14.608;2023-09-30T01:37:59;16.90;99.90
4566;DHT22;2295;51.050;14.608;2023-09-30T01:40:28;16.80;99.90
4566;DHT22;2295;51.050;14.608;2023-09-30T01:42:57;16.70;99.90
4566;DHT22;2295;51.050;14.608;2023-09-30T01:45:25;16.70;99.90
4566;DHT22;2295;51.050;14.608;2023-09-30T01:47:53;16.60;99.90
4566;DHT22;2295;51.050;14.608;2023-09-30T01:50:22;16.50;99.90
4566;DHT22;2295;51.050;14.608;2023-09-30T01:52:50;16.40;99.90
4566;DHT22;2295;51.050;14.608;2023-09-30T01:55:18;16.50;99.90
4566;DHT22;2295;51.050;14.608;2023-09-30T01:57:48;16.70;99.90
4566;DHT22;2295;51.050;14.608;2023-09-30T02:00:17;16.90;99.90
4566;DHT22;2295;51.050;14.608;2023-09-30T02:02:45;16.90;99.90
4566;DHT22;2295;51.050;14.608;2023-09-30T02:05:13;17.10;99.90
4566;DHT22;2295;51.050;14.608;2023-09-30T02:07:42;17.00;99.90
4566;DHT22;2295;51.050;14.608;2023-09-30T02:10:10;17.10;99.90
4566;DHT22;2295;51.050;14.608;2023-09-30T02:12:38;17.00;99.90
4566;DHT22;2295;51.050;14.608;2023-09-30T02:15:09;17.00;99.90
4566;DHT22;2295;51.050;14.608;2023-09-30T02:17:38;17.00;99.90
4566;DHT22;2295;51.050;14.608;2023-09-30T02:20:08;17.00;99.90
4566;DHT22;2295;51.050;14.608;2023-09-30T02:22:40;16.90;99.90
4566;DHT22;2295;51.050;14.608;2023-09-30T02:25:09;16.80;99.90
4566;DHT22;2295;51.050;14.608;2023-09-30T02:27:40;16.60;99.90
4566;DHT22;2295;51.050;14.608;2023-09-30T02:30:11;16.50;99.90
4566;DHT22;2295;51.050;14.608;2023-09-30T02:32:43;16.50;99.90
4566;DHT22;2295;51.050;14.608;2023-09-30T02:35:13;16.40;99.90
4566;DHT22;2295;51.050;14.608;2023-09-30T02:37:43;16.20;99.90
4566;DHT22;2295;51.050;14.608;2023-09-30T02:40:11;15.90;99.90
4566;DHT22;2295;51.050;14.608;2023-09-30T02:42:42;15.60;99.90
4566;DHT22;2295;51.050;14.608;2023-09-30T02:45:13;15.50;99.90
4566;DHT22;2295;51.050;14.608;2023-09-30T02:47:41;15.30;99.90
4566;DHT22;2295;51.050;14.608;2023-09-30T02:50:10;15.20;99.90
4566;DHT22;2295;51.050;14.608;2023-09-30T02:52:39;15.20;99.90
4566;DHT22;2295;51.050;14.608;2023-09-30T02:55:09;15.10;99.90
4566;DHT22;2295;51.050;14.608;2023-09-30T02:57:38;15.00;99.90
4566;DHT22;2295;51.050;14.608;2023-09-30T03:00:09;14.90;99.90
4566;DHT22;2295;51.050;14.608;2023-09-30T03:02:51;14.90;99.90
4566;DHT22;2295;51.050;14.608;2023-09-30T03:05:19;14.90;99.90
4566;DHT22;2295;51.050;14.608;2023-09-30T03:07:48;14.90;99.90
4566;DHT22;2295;51.050;14.608;2023-09-30T03:10:17;14.90;99.90
4566;DHT22;2295;51.050;14.608;2023-09-30T03:12:48;14.90;99.90
4566;DHT22;2295;51.050;14.608;2023-09-30T03:15:16;14.80;99.90
4566;DHT22;2295;51.050;14.608;2023-09-30T03:17:45;14.70;99.90
4566;DHT22;2295;51.050;14.608;2023-09-30T03:20:21;14.70;99.90
4566;DHT22;2295;51.050;14.608;2023-09-30T03:22:52;14.50;99.90
4566;DHT22;2295;51.050;14.608;2023-09-30T03:25:20;14.50;99.90
4566;DHT22;2295;51.050;14.608;2023-09-30T03:27:49;14.40;99.90
4566;DHT22;2295;51.050;14.608;2023-09-30T03:30:18;14.40;99.90
4566;DHT22;2295;51.050;14.608;2023-09-30T03:32:48;14.40;99.90
4566;DHT22;2295;51.050;14.608;2023-09-30T03:35:16;14.40;99.90
4566;DHT22;2295;51.050;14.608;2023-09-30T03:37:47;14.40;99.90
4566;DHT22;2295;51.050;14.608;2023-09-30T03:40:15;14.40;99.90
4566;DHT22;2295;51.050;14.608;2023-09-30T03:42:48;14.40;99.90
4566;DHT22;2295;51.050;14.608;2023-09-30T03:45:17;14.50;99.90
4566;DHT22;2295;51.050;14.608;2023-09-30T03:47:46;14.50;99.90
4566;DHT22;2295;51.050;14.608;2023-09-30T03:50:16;14.50;99.90
4566;DHT22;2295;51.050;14.608;2023-09-30T03:52:46;14.40;99.90
4566;DHT22;2295;51.050;14.608;2023-09-30T03:55:15;14.40;99.90
4566;DHT22;2295;51.050;14.608;2023-09-30T03:57:47;14.40;99.90
4566;DHT22;2295;51.050;14.608;2023-09-30T04:00:16;14.30;99.90
4566;DHT22;2295;51.050;14.608;2023-09-30T04:02:48;14.30;99.90
4566;DHT22;2295;51.050;14.608;2023-09-30T04:05:18;14.30;99.90
4566;DHT22;2295;51.050;14.608;2023-09-30T04:07:48;14.30;99.90
4566;DHT22;2295;51.050;14.608;2023-09-30T04:10:17;14.20;99.90
4566;DHT22;2295;51.050;14.608;2023-09-30T04:12:47;14.20;99.90
4566;DHT22;2295;51.050;14.608;2023-09-30T04:15:16;14.20;99.90
4566;DHT22;2295;51.050;14.608;2023-09-30T04:17:44;14.20;99.90
4566;DHT22;2295;51.050;14.608;2023-09-30T04:20:13;14.10;99.90
4566;DHT22;2295;51.050;14.608;2023-09-30T04:22:49;14.10;99.90
4566;DHT22;2295;51.050;14.608;2023-09-30T04:25:18;14.00;99.90
4566;DHT22;2295;51.050;14.608;2023-09-30T04:27:47;14.00;99.90
4566;DHT22;2295;51.050;14.608;2023-09-30T04:30:16;13.90;99.90
4566;DHT22;2295;51.050;14.608;2023-09-30T04:32:45;13.90;99.90
4566;DHT22;2295;51.050;14.608;2023-09-30T04:35:14;13.90;99.90
4566;DHT22;2295;51.050;14.608;2023-09-30T04:37:42;13.80;99.90
4566;DHT22;2295;51.050;14.608;2023-09-30T04:40:12;13.70;99.90
4566;DHT22;2295;51.050;14.608;2023-09-30T04:42:43;13.60;99.90
4566;DHT22;2295;51.050;14.608;2023-09-30T04:45:14;13.50;99.90
4566;DHT22;2295;51.050;14.608;2023-09-30T04:47:43;13.40;99.90
4566;DHT22;2295;51.050;14.608;2023-09-30T04:50:12;13.30;99.90
4566;DHT22;2295;51.050;14.608;2023-09-30T04:52:43;13.10;99.90
4566;DHT22;2295;51.050;14.608;2023-09-30T04:55:14;13.10;99.90
4566;DHT22;2295;51.050;14.608;2023-09-30T04:57:44;13.10;99.90
4566;DHT22;2295;51.050;14.608;2023-09-30T05:00:13;13.10;99.90
4566;DHT22;2295;51.050;14.608;2023-09-30T05:02:43;13.20;99.90
4566;DHT22;2295;51.050;14.608;2023-09-30T05:05:13;13.20;99.90
4566;DHT22;2295;51.050;14.608;2023-09-30T05:07:42;13.20;99.90
4566;DHT22;2295;51.050;14.608;2023-09-30T05:10:11;13.20;99.90
4566;DHT22;2295;51.050;14.608;2023-09-30T05:12:45;13.20;99.90
4566;DHT22;2295;51.050;14.608;2023-09-30T05:15:15;13.20;99.90
4566;DHT22;2295;51.050;14.608;2023-09-30T05:17:44;13.20;99.90
4566;DHT22;2295;51.050;14.608;2023-09-30T05:20:16;13.20;99.90
4566;DHT22;2295;51.050;14.608;2023-09-30T05:22:45;13.20;99.90
4566;DHT22;2295;51.050;14.608;2023-09-30T05:25:16;13.20;99.90
4566;DHT22;2295;51.050;14.608;2023-09-30T05:27:47;13.20;99.90
4566;DHT22;2295;51.050;14.608;2023-09-30T05:30:16;13.20;99.90
4566;DHT22;2295;51.050;14.608;2023-09-30T05:32:46;13.20;99.90
4566;DHT22;2295;51.050;14.608;2023-09-30T05:35:15;13.20;99.90
4566;DHT22;2295;51.050;14.608;2023-09-30T05:37:45;13.20;99.90
4566;DHT22;2295;51.050;14.608;2023-09-30T05:40:13;13.20;99.90
4566;DHT22;2295;51.050;14.608;2023-09-30T05:42:52;13.20;99.90
4566;DHT22;2295;51.050;14.608;2023-09-30T05:45:22;13.20;99.90
4566;DHT22;2295;51.050;14.608;2023-09-30T05:47:53;13.30;99.90
4566;DHT22;2295;51.050;14.608;2023-09-30T05:50:23;13.30;99.90
4566;DHT22;2295;51.050;14.608;2023-09-30T05:52:54;13.40;99.90
4566;DHT22;2295;51.050;14.608;2023-09-30T05:55:23;13.50;99.90
4566;DHT22;2295;51.050;14.608;2023-09-30T05:57:55;13.50;99.90
4566;DHT22;2295;51.050;14.608;2023-09-30T06:00:23;13.50;99.90
4566;DHT22;2295;51.050;14.608;2023-09-30T06:02:56;13.50;99.90
4566;DHT22;2295;51.050;14.608;2023-09-30T06:05:26;13.50;99.90
4566;DHT22;2295;51.050;14.608;2023-09-30T06:07:57;13.50;99.90
4566;DHT22;2295;51.050;14.608;2023-09-30T06:10:25;13.50;99.90
4566;DHT22;2295;51.050;14.608;2023-09-30T06:12:56;13.50;99.90
4566;DHT22;2295;51.050;14.608;2023-09-30T06:15:25;13.50;99.90
4566;DHT22;2295;51.050;14.608;2023-09-30T06:17:58;13.40;99.90
4566;DHT22;2295;51.050;14.608;2023-09-30T06:20:27;13.40;99.90
4566;DHT22;2295;51.050;14.608;2023-09-30T06:22:58;13.40;99.90
4566;DHT22;2295;51.050;14.608;2023-09-30T06:25:27;13.40;99.90
4566;DHT22;2295;51.050;14.608;2023-09-30T06:27:58;13.50;99.90
4566;DHT22;2295;51.050;14.608;2023-09-30T06:30:27;13.70;99.90
4566;DHT22;2295;51.050;14.608;2023-09-30T06:32:58;13.80;99.90
4566;DHT22;2295;51.050;14.608;2023-09-30T06:35:28;14.00;99.90
4566;DHT22;2295;51.050;14.608;2023-09-30T06:38:01;14.20;99.90
4566;DHT22;2295;51.050;14.608;2023-09-30T06:40:30;14.30;99.90
4566;DHT22;2295;51.050;14.608;2023-09-30T06:43:00;14.30;99.90
4566;DHT22;2295;51.050;14.608;2023-09-30T06:45:28;14.20;99.90
4566;DHT22;2295;51.050;14.608;2023-09-30T06:47:57;14.20;99.90
4566;DHT22;2295;51.050;14.608;2023-09-30T06:50:25;14.20;99.90
4566;DHT22;2295;51.050;14.608;2023-09-30T06:52:54;14.20;99.90
4566;DHT22;2295;51.050;14.608;2023-09-30T06:55:22;14.30;99.90
4566;DHT22;2295;51.050;14.608;2023-09-30T06:57:52;14.30;99.90
4566;DHT22;2295;51.050;14.608;2023-09-30T07:00:25;14.30;99.90
4566;DHT22;2295;51.050;14.608;2023-09-30T07:02:54;14.30;99.90
4566;DHT22;2295;51.050;14.608;2023-09-30T07:05:22;14.30;99.90
4566;DHT22;2295;51.050;14.608;2023-09-30T07:07:51;14.40;99.90
4566;DHT22;2295;51.050;14.608;2023-09-30T07:10:19;14.50;99.90
4566;DHT22;2295;51.050;14.608;2023-09-30T07:12:47;14.40;99.90
4566;DHT22;2295;51.050;14.608;2023-09-30T07:15:16;14.40;99.90
4566;DHT22;2295;51.050;14.608;2023-09-30T07:17:46;14.30;99.90
4566;DHT22;2295;51.050;14.608;2023-09-30T07:20:14;14.20;99.90
4566;DHT22;2295;51.050;14.608;2023-09-30T07:22:43;14.20;99.90
4566;DHT22;2295;51.050;14.608;2023-09-30T07:25:32;14.20;99.90
4566;DHT22;2295;51.050;14.608;2023-09-30T07:28:01;14.20;99.90
4566;DHT22;2295;51.050;14.608;2023-09-30T07:30:30;14.20;99.90
4566;DHT22;2295;51.050;14.608;2023-09-30T07:33:03;14.10;99.90
4566;DHT22;2295;51.050;14.608;2023-09-30T07:35:31;14.10;99.90
4566;DHT22;2295;51.050;14.608;2023-09-30T07:38:00;14.10;99.90
4566;DHT22;2295;51.050;14.608;2023-09-30T07:40:28;14.00;99.90
4566;DHT22;2295;51.050;14.608;2023-09-30T07:42:58;14.10;99.90
4566;DHT22;2295;51.050;14.608;2023-09-30T07:45:26;14.30;99.90
4566;DHT22;2295;51.050;14.608;2023-09-30T07:47:58;14.60;99.90
4566;DHT22;2295;51.050;14.608;2023-09-30T07:50:33;15.10;99.90
4566;DHT22;2295;51.050;14.608;2023-09-30T07:53:04;15.30;99.90
4566;DHT22;2295;51.050;14.608;2023-09-30T07:55:33;15.30;99.90
4566;DHT22;2295;51.050;14.608;2023-09-30T07:58:01;15.30;99.90
4566;DHT22;2295;51.050;14.608;2023-09-30T08:00:30;15.30;99.90
4566;DHT22;2295;51.050;14.608;2023-09-30T08:03:04;15.20;99.90
4566;DHT22;2295;51.050;14.608;2023-09-30T08:05:34;15.20;99.90
4566;DHT22;2295;51.050;14.608;2023-09-30T08:08:09;15.40;99.90
4566;DHT22;2295;51.050;14.608;2023-09-30T08:10:38;15.50;99.90
4566;DHT22;2295;51.050;14.608;2023-09-30T08:13:06;15.90;99.90
4566;DHT22;2295;51.050;14.608;2023-09-30T08:15:35;16.30;99.90
4566;DHT22;2295;51.050;14.608;2023-09-30T08:18:04;16.80;99.90
4566;DHT22;2295;51.050;14.608;2023-09-30T08:20:34;16.90;99.90
4566;DHT22;2295;51.050;14.608;2023-09-30T08:23:03;16.60;99.90
4566;DHT22;2295;51.050;14.608;2023-09-30T08:25:32;16.10;99.90
4566;DHT22;2295;51.050;14.608;2023-09-30T08:28:00;15.70;99.90
4566;DHT22;2295;51.050;14.608;2023-09-30T08:30:28;15.90;99.90
4566;DHT22;2295;51.050;14.608;2023-09-30T08:32:57;16.20;99.90
4566;DHT22;2295;51.050;14.608;2023-09-30T08:35:26;16.80;99.90
4566;DHT22;2295;51.050;14.608;2023-09-30T08:37:56;17.20;99.90
4566;DHT22;2295;51.050;14.608;2023-09-30T08:40:25;17.50;99.90
4566;DHT22;2295;51.050;14.608;2023-09-30T08:42:53;17.40;99.90
4566;DHT22;2295;51.050;14.608;2023-09-30T08:45:22;17.10;99.90
4566;DHT22;2295;51.050;14.608;2023-09-30T08:47:50;17.10;99.90
4566;DHT22;2295;51.050;14.608;2023-09-30T08:50:20;17.40;99.90
4566;DHT22;2295;51.050;14.608;2023-09-30T08:52:49;17.50;99.90
4566;DHT22;2295;51.050;14.608;2023-09-30T08:55:19;17.40;99.90
4566;DHT22;2295;51.050;14.608;2023-09-30T08:57:48;17.10;99.90
4566;DHT22;2295;51.050;14.608;2023-09-30T09:00:19;17.10;99.90
4566;DHT22;2295;51.050;14.608;2023-09-30T09:02:50;17.90;99.90
4566;DHT22;2295;51.050;14.608;2023-09-30T09:05:18;18.80;99.90
4566;DHT22;2295;51.050;14.608;2023-09-30T09:07:46;19.40;99.90
4566;DHT22;2295;51.050;14.608;2023-09-30T09:10:14;19.90;99.90
4566;DHT22;2295;51.050;14.608;2023-09-30T09:12:55;19.90;99.90
4566;DHT22;2295;51.050;14.608;2023-09-30T09:15:24;19.20;99.90
4566;DHT22;2295;51.050;14.608;2023-09-30T09:17:53;18.60;99.90
4566;DHT22;2295;51.050;14.608;2023-09-30T09:20:23;18.00;99.90
4566;DHT22;2295;51.050;14.608;2023-09-30T09:22:53;17.70;99.90
4566;DHT22;2295;51.050;14.608;2023-09-30T09:25:23;17.60;99.90
4566;DHT22;2295;51.050;14.608;2023-09-30T09:28:00;17.60;99.90
4566;DHT22;2295;51.050;14.608;2023-09-30T09:30:28;17.70;99.90
4566;DHT22;2295;51.050;14.608;2023-09-30T09:33:01;18.80;99.90
4566;DHT22;2295;51.050;14.608;2023-09-30T09:35:33;19.60;99.90
4566;DHT22;2295;51.050;14.608;2023-09-30T09:38:03;20.50;99.80
4566;DHT22;2295;51.050;14.608;2023-09-30T09:40:32;20.50;98.50
4566;DHT22;2295;51.050;14.608;2023-09-30T09:43:03;20.50;97.40
4566;DHT22;2295;51.050;14.608;2023-09-30T09:45:34;20.60;97.50
4566;DHT22;2295;51.050;14.608;2023-09-30T09:48:03;21.20;96.90
4566;DHT22;2295;51.050;14.608;2023-09-30T09:50:32;22.50;95.00
4566;DHT22;2295;51.050;14.608;2023-09-30T09:53:04;23.20;93.30
4566;DHT22;2295;51.050;14.608;2023-09-30T09:55:32;23.00;92.60
4566;DHT22;2295;51.050;14.608;2023-09-30T09:58:03;22.40;91.70
4566;DHT22;2295;51.050;14.608;2023-09-30T10:00:35;21.90;91.60
4566;DHT22;2295;51.050;14.608;2023-09-30T10:03:04;21.80;93.60
4566;DHT22;2295;51.050;14.608;2023-09-30T10:05:33;22.40;92.90
4566;DHT22;2295;51.050;14.608;2023-09-30T10:08:04;22.60;91.20
4566;DHT22;2295;51.050;14.608;2023-09-30T10:10:36;22.00;91.90
4566;DHT22;2295;51.050;14.608;2023-09-30T10:13:07;22.10;92.20
4566;DHT22;2295;51.050;14.608;2023-09-30T10:15:39;22.50;92.20
4566;DHT22;2295;51.050;14.608;2023-09-30T10:18:11;22.90;90.80
4566;DHT22;2295;51.050;14.608;2023-09-30T10:20:43;23.60;88.00
4566;DHT22;2295;51.050;14.608;2023-09-30T10:23:24;23.30;89.00
4566;DHT22;2295;51.050;14.608;2023-09-30T10:25:54;23.00;85.80
4566;DHT22;2295;51.050;14.608;2023-09-30T10:28:44;23.20;90.20
4566;DHT22;2295;51.050;14.608;2023-09-30T10:31:14;23.90;86.90
4566;DHT22;2295;51.050;14.608;2023-09-30T10:34:18;23.90;84.60
4566;DHT22;2295;51.050;14.608;2023-09-30T10:36:48;24.20;82.30
4566;DHT22;2295;51.050;14.608;2023-09-30T10:42:45;24.40;78.00
4566;DHT22;2295;51.050;14.608;2023-09-30T10:45:46;24.50;81.50
4566;DHT22;2295;51.050;14.608;2023-09-30T10:48:35;23.60;80.50
4566;DHT22;2295;51.050;14.608;2023-09-30T10:51:11;22.80;80.10
4566;DHT22;2295;51.050;14.608;2023-09-30T10:53:45;23.20;83.80
4566;DHT22;2295;51.050;14.608;2023-09-30T10:56:15;23.70;78.70
4566;DHT22;2295;51.050;14.608;2023-09-30T10:58:45;23.90;79.80
4566;DHT22;2295;51.050;14.608;2023-09-30T11:01:16;23.90;79.90
4566;DHT22;2295;51.050;14.608;2023-09-30T11:03:45;23.50;82.20
4566;DHT22;2295;51.050;14.608;2023-09-30T11:06:16;23.20;79.70
4566;DHT22;2295;51.050;14.608;2023-09-30T11:08:52;22.10;81.90
4566;DHT22;2295;51.050;14.608;2023-09-30T11:11:38;21.00;86.50
4566;DHT22;2295;51.050;14.608;2023-09-30T11:14:23;21.00;90.60
4566;DHT22;2295;51.050;14.608;2023-09-30T11:16:58;21.90;90.90
4566;DHT22;2295;51.050;14.608;2023-09-30T11:19:34;22.80;83.10
4566;DHT22;2295;51.050;14.608;2023-09-30T11:22:09;22.80;81.70
4566;DHT22;2295;51.050;14.608;2023-09-30T11:24:37;21.90;83.40
4566;DHT22;2295;51.050;14.608;2023-09-30T11:27:05;21.10;85.50
4566;DHT22;2295;51.050;14.608;2023-09-30T11:29:34;20.80;88.60
4566;DHT22;2295;51.050;14.608;2023-09-30T11:32:04;20.40;85.40
4566;DHT22;2295;51.050;14.608;2023-09-30T11:34:34;20.20;90.30
4566;DHT22;2295;51.050;14.608;2023-09-30T11:37:03;21.00;87.90
4566;DHT22;2295;51.050;14.608;2023-09-30T11:39:32;21.70;84.40
4566;DHT22;2295;51.050;14.608;2023-09-30T11:42:01;21.60;85.00
4566;DHT22;2295;51.050;14.608;2023-09-30T11:44:31;21.60;85.70
4566;DHT22;2295;51.050;14.608;2023-09-30T11:47:00;21.30;84.80
4566;DHT22;2295;51.050;14.608;2023-09-30T11:49:34;20.60;87.20
4566;DHT22;2295;51.050;14.608;2023-09-30T11:52:06;20.10;90.20
4566;DHT22;2295;51.050;14.608;2023-09-30T11:54:36;19.50;91.10
4566;DHT22;2295;51.050;14.608;2023-09-30T11:57:07;19.20;91.90
4566;DHT22;2295;51.050;14.608;2023-09-30T11:59:40;19.30;91.00
4566;DHT22;2295;51.050;14.608;2023-09-30T12:02:09;19.80;90.90
4566;DHT22;2295;51.050;14.608;2023-09-30T12:04:46;20.50;91.00
4566;DHT22;2295;51.050;14.608;2023-09-30T12:07:15;21.30;90.10
4566;DHT22;2295;51.050;14.608;2023-09-30T12:09:43;21.90;85.90
4566;DHT22;2295;51.050;14.608;2023-09-30T12:12:18;21.80;85.60
4566;DHT22;2295;51.050;14.608;2023-09-30T12:14:46;20.90;86.50
4566;DHT22;2295;51.050;14.608;2023-09-30T12:17:17;20.20;88.70
4566;DHT22;2295;51.050;14.608;2023-09-30T12:19:50;20.10;88.70
4566;DHT22;2295;51.050;14.608;2023-09-30T12:22:18;19.80;88.50
4566;DHT22;2295;51.050;14.608;2023-09-30T12:24:49;20.00;88.50
4566;DHT22;2295;51.050;14.608;2023-09-30T12:27:19;20.20;89.00
4566;DHT22;2295;51.050;14.608;2023-09-30T12:29:47;20.40;89.90
4566;DHT22;2295;51.050;14.608;2023-09-30T12:32:17;20.60;87.50
4566;DHT22;2295;51.050;14.608;2023-09-30T12:34:45;20.70;87.50
4566;DHT22;2295;51.050;14.608;2023-09-30T12:37:15;21.00;88.20
4566;DHT22;2295;51.050;14.608;2023-09-30T12:39:44;21.00;83.00
4566;DHT22;2295;51.050;14.608;2023-09-30T12:42:13;21.10;86.80
4566;DHT22;2295;51.050;14.608;2023-09-30T12:44:42;21.20;88.80
4566;DHT22;2295;51.050;14.608;2023-09-30T12:47:10;21.10;86.30
4566;DHT22;2295;51.050;14.608;2023-09-30T12:49:40;21.00;85.10
4566;DHT22;2295;51.050;14.608;2023-09-30T12:52:09;20.60;81.80
4566;DHT22;2295;51.050;14.608;2023-09-30T12:54:41;20.30;85.70
4566;DHT22;2295;51.050;14.608;2023-09-30T12:57:09;20.30;87.30
4566;DHT22;2295;51.050;14.608;2023-09-30T12:59:42;20.50;85.90
4566;DHT22;2295;51.050;14.608;2023-09-30T13:02:11;20.30;85.20
4566;DHT22;2295;51.050;14.608;2023-09-30T13:04:39;20.00;88.90
4566;DHT22;2295;51.050;14.608;2023-09-30T13:07:10;19.80;84.20
4566;DHT22;2295;51.050;14.608;2023-09-30T13:09:43;19.60;87.10
4566;DHT22;2295;51.050;14.608;2023-09-30T13:12:13;19.30;86.80
4566;DHT22;2295;51.050;14.608;2023-09-30T13:14:41;19.10;88.20
4566;DHT22;2295;51.050;14.608;2023-09-30T13:17:09;19.10;89.40
4566;DHT22;2295;51.050;14.608;2023-09-30T13:19:41;19.10;89.70
4566;DHT22;2295;51.050;14.608;2023-09-30T13:22:09;19.30;90.30
4566;DHT22;2295;51.050;14.608;2023-09-30T13:24:49;19.40;90.20
4566;DHT22;2295;51.050;14.608;2023-09-30T13:27:18;19.50;90.80
4566;DHT22;2295;51.050;14.608;2023-09-30T13:29:46;19.50;89.00
4566;DHT22;2295;51.050;14.608;2023-09-30T13:32:15;19.40;89.40
4566;DHT22;2295;51.050;14.608;2023-09-30T13:34:45;19.40;91.00
4566;DHT22;2295;51.050;14.608;2023-09-30T13:37:15;19.40;88.70
4566;DHT22;2295;51.050;14.608;2023-09-30T13:39:43;19.40;90.50
4566;DHT22;2295;51.050;14.608;2023-09-30T13:42:13;19.20;89.10
4566;DHT22;2295;51.050;14.608;2023-09-30T13:44:41;19.00;90.40
4566;DHT22;2295;51.050;14.608;2023-09-30T13:47:10;19.00;91.50
4566;DHT22;2295;51.050;14.608;2023-09-30T13:49:38;18.90;91.70
4566;DHT22;2295;51.050;14.608;2023-09-30T13:52:06;19.00;90.70
4566;DHT22;2295;51.050;14.608;2023-09-30T13:54:35;19.00;89.10
4566;DHT22;2295;51.050;14.608;2023-09-30T13:57:03;18.80;89.70
4566;DHT22;2295;51.050;14.608;2023-09-30T13:59:35;18.40;90.20
4566;DHT22;2295;51.050;14.608;2023-09-30T14:02:06;18.10;91.70
4566;DHT22;2295;51.050;14.608;2023-09-30T14:04:34;17.80;91.60
4566;DHT22;2295;51.050;14.608;2023-09-30T14:07:03;17.60;92.20
4566;DHT22;2295;51.050;14.608;2023-09-30T14:09:33;17.30;92.90
4566;DHT22;2295;51.050;14.608;2023-09-30T14:12:03;17.30;93.40
4566;DHT22;2295;51.050;14.608;2023-09-30T14:14:32;17.40;95.30
4566;DHT22;2295;51.050;14.608;2023-09-30T14:17:02;17.50;94.60
4566;DHT22;2295;51.050;14.608;2023-09-30T14:19:37;17.30;93.80
4566;DHT22;2295;51.050;14.608;2023-09-30T14:22:09;17.20;95.90
4566;DHT22;2295;51.050;14.608;2023-09-30T14:24:37;17.00;93.40
4566;DHT22;2295;51.050;14.608;2023-09-30T14:27:06;16.80;95.00
4566;DHT22;2295;51.050;14.608;2023-09-30T14:29:34;16.70;95.70
4566;DHT22;2295;51.050;14.608;2023-09-30T14:32:04;16.60;96.80
4566;DHT22;2295;51.050;14.608;2023-09-30T14:34:34;16.50;97.70
4566;DHT22;2295;51.050;14.608;2023-09-30T14:37:02;16.40;97.50
4566;DHT22;2295;51.050;14.608;2023-09-30T14:39:31;16.40;96.50
4566;DHT22;2295;51.050;14.608;2023-09-30T14:41:59;16.30;96.50
4566;DHT22;2295;51.050;14.608;2023-09-30T14:44:27;16.30;96.60
4566;DHT22;2295;51.050;14.608;2023-09-30T14:46:56;16.20;97.50
4566;DHT22;2295;51.050;14.608;2023-09-30T14:49:26;16.10;98.20
4566;DHT22;2295;51.050;14.608;2023-09-30T14:51:56;16.20;97.90
4566;DHT22;2295;51.050;14.608;2023-09-30T14:54:25;16.20;99.00
4566;DHT22;2295;51.050;14.608;2023-09-30T14:56:53;16.30;96.50
4566;DHT22;2295;51.050;14.608;2023-09-30T14:59:22;16.30;96.90
4566;DHT22;2295;51.050;14.608;2023-09-30T15:01:50;16.30;96.40
4566;DHT22;2295;51.050;14.608;2023-09-30T15:04:20;16.30;98.60
4566;DHT22;2295;51.050;14.608;2023-09-30T15:06:50;16.30;96.60
4566;DHT22;2295;51.050;14.608;2023-09-30T15:09:19;16.40;97.70
4566;DHT22;2295;51.050;14.608;2023-09-30T15:11:47;16.60;96.00
4566;DHT22;2295;51.050;14.608;2023-09-30T15:14:15;16.70;96.80
4566;DHT22;2295;51.050;14.608;2023-09-30T15:16:44;16.80;95.30
4566;DHT22;2295;51.050;14.608;2023-09-30T15:19:12;16.90;95.90
4566;DHT22;2295;51.050;14.608;2023-09-30T15:21:41;16.80;95.60
4566;DHT22;2295;51.050;14.608;2023-09-30T15:24:11;16.70;96.50
4566;DHT22;2295;51.050;14.608;2023-09-30T15:26:39;16.60;96.20
4566;DHT22;2295;51.050;14.608;2023-09-30T15:29:07;16.50;96.30
4566;DHT22;2295;51.050;14.608;2023-09-30T15:31:35;16.40;96.70
4566;DHT22;2295;51.050;14.608;2023-09-30T15:34:05;16.30;96.70
4566;DHT22;2295;51.050;14.608;2023-09-30T15:36:34;16.20;97.30
4566;DHT22;2295;51.050;14.608;2023-09-30T15:39:03;16.20;97.30
4566;DHT22;2295;51.050;14.608;2023-09-30T15:41:33;16.00;96.90
4566;DHT22;2295;51.050;14.608;2023-09-30T15:44:01;15.90;97.10
4566;DHT22;2295;51.050;14.608;2023-09-30T15:46:30;15.80;96.50
4566;DHT22;2295;51.050;14.608;2023-09-30T15:48:59;15.70;96.90
4566;DHT22;2295;51.050;14.608;2023-09-30T15:51:31;15.70;97.90
4566;DHT22;2295;51.050;14.608;2023-09-30T15:53:59;15.60;99.20
4566;DHT22;2295;51.050;14.608;2023-09-30T15:56:29;15.50;98.00
4566;DHT22;2295;51.050;14.608;2023-09-30T15:59:17;15.40;98.70
4566;DHT22;2295;51.050;14.608;2023-09-30T16:01:47;15.30;98.80
4566;DHT22;2295;51.050;14.608;2023-09-30T16:04:16;15.20;99.90
4566;DHT22;2295;51.050;14.608;2023-09-30T16:06:46;15.00;99.80